sensor_id;sensor_type;location;lat;lon;timestamp;pressure;altitude;pressure_sealevel;temperature;humidity
15260;BME280;34462;51.368;12.364;2023-05-21T00:00:40;20397.16;;;-141.84;76.60
15260;BME280;34462;51.368;12.364;2023-05-21T00:03:08;20356.50;;;-141.84;76.58
15260;BME280;34462;51.368;12.364;2023-05-21T00:05:40;20360.59;;;-141.84;77.01
15260;BME280;34462;51.368;12.364;2023-05-21T00:08:08;20395.13;;;-141.84;77.28
15260;BME280;34462;51.368;12.364;2023-05-21T00:10:36;20397.16;;;-141.84;77.24
15260;BME280;34462;51.368;12.364;2023-05-21T00:13:04;20352.44;;;-141.84;77.39
15260;BME280;34462;51.368;12.364;2023-05-21T00:15:36;20384.97;;;-141.84;76.79
15260;BME280;34462;51.368;12.364;2023-05-21T00:18:04;20387.00;;;-141.84;76.74
15260;BME280;34462;51.368;12.364;2023-05-21T00:20:33;20366.69;;;-141.84;76.43
15260;BME280;34462;51.368;12.364;2023-05-21T00:23:01;20328.06;;;-141.84;77.34
15260;BME280;34462;51.368;12.364;2023-05-21T00:25:30;20362.63;;;-141.84;77.59
15260;BME280;34462;51.368;12.364;2023-05-21T00:27:58;20350.41;;;-141.84;77.76
15260;BME280;34462;51.368;12.364;2023-05-21T00:30:26;20350.41;;;-141.84;77.28
15260;BME280;34462;51.368;12.364;2023-05-21T00:32:56;20421.56;;;-141.84;76.51
15260;BME280;34462;51.368;12.364;2023-05-21T00:35:28;20387.00;;;-141.84;77.46
15260;BME280;34462;51.368;12.364;2023-05-21T00:37:58;20324.00;;;-141.84;77.67
15260;BME280;34462;51.368;12.364;2023-05-21T00:40:26;20346.34;;;-141.84;77.48
15260;BME280;34462;51.368;12.364;2023-05-21T00:42:54;20399.19;;;-141.84;77.55
15260;BME280;34462;51.368;12.364;2023-05-21T00:45:23;20326.03;;;-141.84;77.93
15260;BME280;34462;51.368;12.364;2023-05-21T00:47:52;20380.91;;;-141.84;77.54
15260;BME280;34462;51.368;12.364;2023-05-21T00:50:22;20350.41;;;-141.84;78.04
15260;BME280;34462;51.368;12.364;2023-05-21T00:52:51;20356.50;;;-141.84;78.02
15260;BME280;34462;51.368;12.364;2023-05-21T00:55:20;20315.88;;;-141.84;78.18
15260;BME280;34462;51.368;12.364;2023-05-21T00:57:49;20374.81;;;-141.84;78.09
15260;BME280;34462;51.368;12.364;2023-05-21T01:00:18;20332.13;;;-141.84;78.66
15260;BME280;34462;51.368;12.364;2023-05-21T01:02:46;20326.03;;;-141.84;79.21
15260;BME280;34462;51.368;12.364;2023-05-21T01:05:16;20271.16;;;-141.84;79.72
15260;BME280;34462;51.368;12.364;2023-05-21T01:07:45;20315.88;;;-141.84;79.23
15260;BME280;34462;51.368;12.364;2023-05-21T01:10:14;20324.00;;;-141.84;78.71
15260;BME280;34462;51.368;12.364;2023-05-21T01:12:44;20315.88;;;-141.84;78.57
15260;BME280;34462;51.368;12.364;2023-05-21T01:15:13;20326.03;;;-141.84;79.42
15260;BME280;34462;51.368;12.364;2023-05-21T01:17:42;20279.28;;;-141.84;78.81
15260;BME280;34462;51.368;12.364;2023-05-21T01:20:13;20358.56;;;-141.84;78.97
15260;BME280;34462;51.368;12.364;2023-05-21T01:22:51;20324.00;;;-141.84;78.41
15260;BME280;34462;51.368;12.364;2023-05-21T01:25:20;20305.69;;;-141.84;79.19
15260;BME280;34462;51.368;12.364;2023-05-21T01:27:49;20281.31;;;-141.84;79.53
15260;BME280;34462;51.368;12.364;2023-05-21T01:30:19;20291.47;;;-141.84;79.04
15260;BME280;34462;51.368;12.364;2023-05-21T01:32:59;20265.03;;;-141.84;79.68
15260;BME280;34462;51.368;12.364;2023-05-21T01:35:33;20295.53;;;-141.84;79.96
15260;BME280;34462;51.368;12.364;2023-05-21T01:38:13;20252.84;;;-141.84;80.63
15260;BME280;34462;51.368;12.364;2023-05-21T01:40:50;20277.25;;;-141.84;79.26
15260;BME280;34462;51.368;12.364;2023-05-21T01:43:22;20238.63;;;-141.84;80.18
15260;BME280;34462;51.368;12.364;2023-05-21T01:45:54;20236.59;;;-141.84;80.88
15260;BME280;34462;51.368;12.364;2023-05-21T01:48:24;20222.38;;;-141.84;80.44
15260;BME280;34462;51.368;12.364;2023-05-21T01:50:55;20248.78;;;-141.84;80.71
15260;BME280;34462;51.368;12.364;2023-05-21T01:53:26;20244.72;;;-141.84;80.97
15260;BME280;34462;51.368;12.364;2023-05-21T01:55:54;20283.34;;;-141.84;81.43
15260;BME280;34462;51.368;12.364;2023-05-21T01:58:22;20265.03;;;-141.84;81.53
15260;BME280;34462;51.368;12.364;2023-05-21T02:00:50;20256.91;;;-141.84;80.91
15260;BME280;34462;51.368;12.364;2023-05-21T02:03:19;20220.34;;;-141.84;81.27
15260;BME280;34462;51.368;12.364;2023-05-21T02:05:47;20210.16;;;-141.84;81.00
15260;BME280;34462;51.368;12.364;2023-05-21T02:08:17;20212.19;;;-141.84;81.62
15260;BME280;34462;51.368;12.364;2023-05-21T02:10:47;20214.22;;;-141.84;81.96
15260;BME280;34462;51.368;12.364;2023-05-21T02:13:16;20189.84;;;-141.84;82.15
15260;BME280;34462;51.368;12.364;2023-05-21T02:15:46;20193.91;;;-141.84;82.22
15260;BME280;34462;51.368;12.364;2023-05-21T02:18:14;20187.81;;;-141.84;82.63
15260;BME280;34462;51.368;12.364;2023-05-21T02:20:44;20153.25;;;-141.84;83.49
15260;BME280;34462;51.368;12.364;2023-05-21T02:23:12;20230.50;;;-141.84;83.18
15260;BME280;34462;51.368;12.364;2023-05-21T02:25:40;20155.28;;;-141.84;83.35
15260;BME280;34462;51.368;12.364;2023-05-21T02:28:10;20167.47;;;-141.84;83.80
15260;BME280;34462;51.368;12.364;2023-05-21T02:30:38;20163.41;;;-141.84;84.10
15260;BME280;34462;51.368;12.364;2023-05-21T02:33:06;20137.00;;;-141.84;84.37
15260;BME280;34462;51.368;12.364;2023-05-21T02:35:36;20128.88;;;-141.84;84.92
15260;BME280;34462;51.368;12.364;2023-05-21T02:38:04;20120.75;;;-141.84;85.24
15260;BME280;34462;51.368;12.364;2023-05-21T02:40:35;20134.97;;;-141.84;85.29
15260;BME280;34462;51.368;12.364;2023-05-21T02:43:03;20128.88;;;-141.84;85.10
15260;BME280;34462;51.368;12.364;2023-05-21T02:45:32;20137.00;;;-141.84;84.83
15260;BME280;34462;51.368;12.364;2023-05-21T02:48:01;20163.41;;;-141.84;84.78
15260;BME280;34462;51.368;12.364;2023-05-21T02:50:29;20147.16;;;-141.84;84.52
15260;BME280;34462;51.368;12.364;2023-05-21T02:52:57;20153.25;;;-141.84;84.71
15260;BME280;34462;51.368;12.364;2023-05-21T02:55:26;20155.28;;;-141.84;84.91
15260;BME280;34462;51.368;12.364;2023-05-21T02:57:54;20106.50;;;-141.84;84.95
15260;BME280;34462;51.368;12.364;2023-05-21T03:00:22;20116.66;;;-141.84;84.98
15260;BME280;34462;51.368;12.364;2023-05-21T03:02:51;20126.84;;;-141.84;85.19
15260;BME280;34462;51.368;12.364;2023-05-21T03:05:20;20141.06;;;-141.84;85.26
15260;BME280;34462;51.368;12.364;2023-05-21T03:07:48;20185.78;;;-141.84;84.61
15260;BME280;34462;51.368;12.364;2023-05-21T03:10:17;20128.88;;;-141.84;84.68
15260;BME280;34462;51.368;12.364;2023-05-21T03:12:45;20173.59;;;-141.84;83.98
15260;BME280;34462;51.368;12.364;2023-05-21T03:15:14;20153.25;;;-141.84;84.70
15260;BME280;34462;51.368;12.364;2023-05-21T03:17:42;20175.63;;;-141.84;83.78
15260;BME280;34462;51.368;12.364;2023-05-21T03:20:12;20159.34;;;-141.84;84.35
15260;BME280;34462;51.368;12.364;2023-05-21T03:22:43;20153.25;;;-141.84;84.83
15260;BME280;34462;51.368;12.364;2023-05-21T03:25:12;20126.84;;;-141.84;84.88
15260;BME280;34462;51.368;12.364;2023-05-21T03:27:40;20149.19;;;-141.84;84.88
15260;BME280;34462;51.368;12.364;2023-05-21T03:30:09;20132.94;;;-141.84;85.45
15260;BME280;34462;51.368;12.364;2023-05-21T03:32:38;20112.59;;;-141.84;85.14
15260;BME280;34462;51.368;12.364;2023-05-21T03:35:07;20137.00;;;-141.84;85.28
15260;BME280;34462;51.368;12.364;2023-05-21T03:37:37;20132.94;;;-141.84;85.01
15260;BME280;34462;51.368;12.364;2023-05-21T03:40:07;20141.06;;;-141.84;84.96
15260;BME280;34462;51.368;12.364;2023-05-21T03:42:35;20155.28;;;-141.84;85.23
15260;BME280;34462;51.368;12.364;2023-05-21T03:45:06;20096.34;;;-141.84;85.17
15260;BME280;34462;51.368;12.364;2023-05-21T03:47:34;20128.88;;;-141.84;85.03
15260;BME280;34462;51.368;12.364;2023-05-21T03:50:03;20159.34;;;-141.84;84.25
15260;BME280;34462;51.368;12.364;2023-05-21T03:52:32;20137.00;;;-141.84;84.58
15260;BME280;34462;51.368;12.364;2023-05-21T03:55:01;20126.84;;;-141.84;84.00
15260;BME280;34462;51.368;12.364;2023-05-21T03:57:29;20157.31;;;-141.84;84.66
15260;BME280;34462;51.368;12.364;2023-05-21T03:59:58;20167.47;;;-141.84;84.47
15260;BME280;34462;51.368;12.364;2023-05-21T04:02:26;20147.16;;;-141.84;84.56
15260;BME280;34462;51.368;12.364;2023-05-21T04:04:55;20145.13;;;-141.84;84.28
15260;BME280;34462;51.368;12.364;2023-05-21T04:07:23;20167.47;;;-141.84;84.19
15260;BME280;34462;51.368;12.364;2023-05-21T04:09:53;20175.63;;;-141.84;83.71
15260;BME280;34462;51.368;12.364;2023-05-21T04:12:22;20206.09;;;-141.84;83.02
15260;BME280;34462;51.368;12.364;2023-05-21T04:14:50;20175.63;;;-141.84;83.06
15260;BME280;34462;51.368;12.364;2023-05-21T04:17:18;20232.53;;;-141.84;82.33
15260;BME280;34462;51.368;12.364;2023-05-21T04:19:47;20267.09;;;-141.84;80.90
15260;BME280;34462;51.368;12.364;2023-05-21T04:22:15;20252.84;;;-141.84;79.49
15260;BME280;34462;51.368;12.364;2023-05-21T04:24:43;20244.72;;;-141.84;79.54
15260;BME280;34462;51.368;12.364;2023-05-21T04:27:12;20250.81;;;-141.84;79.51
15260;BME280;34462;51.368;12.364;2023-05-21T04:29:43;20248.78;;;-141.84;79.70
15260;BME280;34462;51.368;12.364;2023-05-21T04:32:11;20260.97;;;-141.84;78.91
15260;BME280;34462;51.368;12.364;2023-05-21T04:34:41;20330.09;;;-141.84;78.31
15260;BME280;34462;51.368;12.364;2023-05-21T04:37:09;20338.22;;;-141.84;77.59
15260;BME280;34462;51.368;12.364;2023-05-21T04:39:37;20334.16;;;-141.84;77.50
15260;BME280;34462;51.368;12.364;2023-05-21T04:42:08;20348.38;;;-141.84;77.37
15260;BME280;34462;51.368;12.364;2023-05-21T04:44:37;20350.41;;;-141.84;76.89
15260;BME280;34462;51.368;12.364;2023-05-21T04:47:07;20393.09;;;-141.84;77.14
15260;BME280;34462;51.368;12.364;2023-05-21T04:49:36;20382.94;;;-141.84;76.18
15260;BME280;34462;51.368;12.364;2023-05-21T04:52:04;20389.03;;;-141.84;76.21
15260;BME280;34462;51.368;12.364;2023-05-21T04:54:34;20407.34;;;-141.84;75.98
15260;BME280;34462;51.368;12.364;2023-05-21T04:57:02;20384.97;;;-141.84;75.69
15260;BME280;34462;51.368;12.364;2023-05-21T04:59:30;20411.41;;;-141.84;75.22
15260;BME280;34462;51.368;12.364;2023-05-21T05:01:58;20403.25;;;-141.84;75.03
15260;BME280;34462;51.368;12.364;2023-05-21T05:04:28;20395.13;;;-141.84;75.20
15260;BME280;34462;51.368;12.364;2023-05-21T05:06:56;20460.19;;;-141.84;74.45
15260;BME280;34462;51.368;12.364;2023-05-21T05:09:24;20433.75;;;-141.84;75.05
15260;BME280;34462;51.368;12.364;2023-05-21T05:11:52;20431.72;;;-141.84;74.94
15260;BME280;34462;51.368;12.364;2023-05-21T05:14:21;20447.97;;;-141.84;74.59
15260;BME280;34462;51.368;12.364;2023-05-21T05:16:49;20472.38;;;-141.84;74.30
15260;BME280;34462;51.368;12.364;2023-05-21T05:19:17;20452.06;;;-141.84;73.82
15260;BME280;34462;51.368;12.364;2023-05-21T05:21:47;20537.44;;;-141.84;73.93
15260;BME280;34462;51.368;12.364;2023-05-21T05:24:15;20474.41;;;-141.84;73.85
15260;BME280;34462;51.368;12.364;2023-05-21T05:26:44;20476.44;;;-141.84;73.29
15260;BME280;34462;51.368;12.364;2023-05-21T05:29:12;20508.97;;;-141.84;73.01
15260;BME280;34462;51.368;12.364;2023-05-21T05:31:41;20529.28;;;-141.84;72.31
15260;BME280;34462;51.368;12.364;2023-05-21T05:34:09;20557.75;;;-141.84;72.02
15260;BME280;34462;51.368;12.364;2023-05-21T05:36:37;20574.00;;;-141.84;71.18
15260;BME280;34462;51.368;12.364;2023-05-21T05:39:06;20600.44;;;-141.84;70.53
15260;BME280;34462;51.368;12.364;2023-05-21T05:41:35;20649.22;;;-141.84;70.04
15260;BME280;34462;51.368;12.364;2023-05-21T05:44:03;20689.88;;;-141.84;68.83
15260;BME280;34462;51.368;12.364;2023-05-21T05:46:31;20777.28;;;-141.84;68.14
15260;BME280;34462;51.368;12.364;2023-05-21T05:49:00;20797.63;;;-141.84;66.55
15260;BME280;34462;51.368;12.364;2023-05-21T05:51:28;20838.28;;;-141.84;66.19
15260;BME280;34462;51.368;12.364;2023-05-21T05:53:56;20907.41;;;-141.84;65.10
15260;BME280;34462;51.368;12.364;2023-05-21T05:56:26;20921.63;;;-141.84;64.52
15260;BME280;34462;51.368;12.364;2023-05-21T05:58:54;20944.00;;;-141.84;64.25
15260;BME280;34462;51.368;12.364;2023-05-21T06:01:22;20984.66;;;-141.84;64.12
15260;BME280;34462;51.368;12.364;2023-05-21T06:03:52;20960.25;;;-141.84;63.76
15260;BME280;34462;51.368;12.364;2023-05-21T06:06:20;21009.03;;;-141.84;63.56
15260;BME280;34462;51.368;12.364;2023-05-21T06:08:48;21004.97;;;-141.84;63.42
15260;BME280;34462;51.368;12.364;2023-05-21T06:11:16;21039.53;;;-141.84;63.64
15260;BME280;34462;51.368;12.364;2023-05-21T06:13:46;21090.38;;;-141.84;62.27
15260;BME280;34462;51.368;12.364;2023-05-21T06:16:14;21078.16;;;-141.84;62.41
15260;BME280;34462;51.368;12.364;2023-05-21T06:18:42;21106.63;;;-141.84;62.34
15260;BME280;34462;51.368;12.364;2023-05-21T06:21:10;21118.84;;;-141.84;61.85
15260;BME280;34462;51.368;12.364;2023-05-21T06:23:39;21098.50;;;-141.84;62.07
15260;BME280;34462;51.368;12.364;2023-05-21T06:26:07;21090.38;;;-141.84;62.06
15260;BME280;34462;51.368;12.364;2023-05-21T06:28:35;21126.97;;;-141.84;62.21
15260;BME280;34462;51.368;12.364;2023-05-21T06:31:05;21110.69;;;-141.84;62.23
15260;BME280;34462;51.368;12.364;2023-05-21T06:33:33;21104.59;;;-141.84;62.25
15260;BME280;34462;51.368;12.364;2023-05-21T06:36:01;21108.66;;;-141.84;62.16
15260;BME280;34462;51.368;12.364;2023-05-21T06:38:29;21137.13;;;-141.84;61.67
15260;BME280;34462;51.368;12.364;2023-05-21T06:40:57;21175.75;;;-141.84;62.00
15260;BME280;34462;51.368;12.364;2023-05-21T06:43:25;21157.47;;;-141.84;61.68
15260;BME280;34462;51.368;12.364;2023-05-21T06:45:54;21167.63;;;-141.84;62.63
15260;BME280;34462;51.368;12.364;2023-05-21T06:48:24;21161.53;;;-141.84;62.58
15260;BME280;34462;51.368;12.364;2023-05-21T06:50:52;21208.28;;;-141.84;61.66
15260;BME280;34462;51.368;12.364;2023-05-21T06:53:20;21232.69;;;-141.84;61.52
15260;BME280;34462;51.368;12.364;2023-05-21T06:55:48;21240.81;;;-141.84;61.75
15260;BME280;34462;51.368;12.364;2023-05-21T06:58:19;21287.56;;;-141.84;60.75
15260;BME280;34462;51.368;12.364;2023-05-21T07:00:48;21297.75;;;-141.84;60.59
15260;BME280;34462;51.368;12.364;2023-05-21T07:03:16;21299.78;;;-141.84;60.53
15260;BME280;34462;51.368;12.364;2023-05-21T07:05:46;21316.03;;;-141.84;60.51
15260;BME280;34462;51.368;12.364;2023-05-21T07:08:14;21366.88;;;-141.84;59.78
15260;BME280;34462;51.368;12.364;2023-05-21T07:10:42;21425.84;;;-141.84;58.88
15260;BME280;34462;51.368;12.364;2023-05-21T07:13:11;21423.81;;;-141.84;59.43
15260;BME280;34462;51.368;12.364;2023-05-21T07:15:39;21476.66;;;-141.84;58.64
15260;BME280;34462;51.368;12.364;2023-05-21T07:18:07;21507.16;;;-141.84;58.32
15260;BME280;34462;51.368;12.364;2023-05-21T07:20:35;21539.69;;;-141.84;57.73
15260;BME280;34462;51.368;12.364;2023-05-21T07:23:04;21507.16;;;-141.84;57.85
15260;BME280;34462;51.368;12.364;2023-05-21T07:25:32;21525.47;;;-141.84;57.53
15260;BME280;34462;51.368;12.364;2023-05-21T07:28:01;21535.63;;;-141.84;57.70
15260;BME280;34462;51.368;12.364;2023-05-21T07:30:32;21525.47;;;-141.84;58.18
15260;BME280;34462;51.368;12.364;2023-05-21T07:33:00;21549.84;;;-141.84;58.35
15260;BME280;34462;51.368;12.364;2023-05-21T07:35:28;21537.66;;;-141.84;58.24
15260;BME280;34462;51.368;12.364;2023-05-21T07:37:56;21551.91;;;-141.84;58.20
15260;BME280;34462;51.368;12.364;2023-05-21T07:40:26;21486.81;;;-141.84;58.26
15260;BME280;34462;51.368;12.364;2023-05-21T07:42:54;21505.13;;;-141.84;58.42
15260;BME280;34462;51.368;12.364;2023-05-21T07:45:22;21513.25;;;-141.84;58.30
15260;BME280;34462;51.368;12.364;2023-05-21T07:47:51;21523.44;;;-141.84;58.25
15260;BME280;34462;51.368;12.364;2023-05-21T07:50:19;21533.59;;;-141.84;58.36
15260;BME280;34462;51.368;12.364;2023-05-21T07:52:48;21492.94;;;-141.84;59.04
15260;BME280;34462;51.368;12.364;2023-05-21T07:55:16;21529.53;;;-141.84;58.52
15260;BME280;34462;51.368;12.364;2023-05-21T07:57:45;21549.84;;;-141.84;58.23
15260;BME280;34462;51.368;12.364;2023-05-21T08:00:14;21592.56;;;-141.84;58.33
15260;BME280;34462;51.368;12.364;2023-05-21T08:02:43;21594.59;;;-141.84;58.12
15260;BME280;34462;51.368;12.364;2023-05-21T08:05:11;21574.25;;;-141.84;58.32
15260;BME280;34462;51.368;12.364;2023-05-21T08:07:39;21602.72;;;-141.84;58.44
15260;BME280;34462;51.368;12.364;2023-05-21T08:10:08;21614.94;;;-141.84;58.56
15260;BME280;34462;51.368;12.364;2023-05-21T08:12:36;21619.00;;;-141.84;57.67
15260;BME280;34462;51.368;12.364;2023-05-21T08:15:07;21625.09;;;-141.84;57.61
15260;BME280;34462;51.368;12.364;2023-05-21T08:17:35;21641.34;;;-141.84;56.98
15260;BME280;34462;51.368;12.364;2023-05-21T08:20:04;21680.00;;;-141.84;56.32
15260;BME280;34462;51.368;12.364;2023-05-21T08:22:33;21684.06;;;-141.84;56.70
15260;BME280;34462;51.368;12.364;2023-05-21T08:25:01;21688.13;;;-141.84;56.96
15260;BME280;34462;51.368;12.364;2023-05-21T08:27:29;21724.72;;;-141.84;56.60
15260;BME280;34462;51.368;12.364;2023-05-21T08:29:57;21732.84;;;-141.84;56.42
15260;BME280;34462;51.368;12.364;2023-05-21T08:32:26;21732.84;;;-141.84;56.05
15260;BME280;34462;51.368;12.364;2023-05-21T08:34:54;21724.72;;;-141.84;56.51
15260;BME280;34462;51.368;12.364;2023-05-21T08:37:23;21757.25;;;-141.84;55.91
15260;BME280;34462;51.368;12.364;2023-05-21T08:39:51;21771.50;;;-141.84;55.73
15260;BME280;34462;51.368;12.364;2023-05-21T08:42:39;21777.59;;;-141.84;55.25
15260;BME280;34462;51.368;12.364;2023-05-21T08:45:11;21820.28;;;-141.84;55.14
15260;BME280;34462;51.368;12.364;2023-05-21T08:47:43;21822.31;;;-141.84;54.63
15260;BME280;34462;51.368;12.364;2023-05-21T08:50:14;21842.66;;;-141.84;54.65
15260;BME280;34462;51.368;12.364;2023-05-21T08:52:45;21826.41;;;-141.84;54.70
15260;BME280;34462;51.368;12.364;2023-05-21T08:55:14;21836.56;;;-141.84;54.80
15260;BME280;34462;51.368;12.364;2023-05-21T08:57:43;21846.72;;;-141.84;54.57
15260;BME280;34462;51.368;12.364;2023-05-21T09:00:13;21871.13;;;-141.84;55.15
15260;BME280;34462;51.368;12.364;2023-05-21T09:02:43;21917.91;;;-141.84;54.95
15260;BME280;34462;51.368;12.364;2023-05-21T09:05:13;21934.16;;;-141.84;53.58
15260;BME280;34462;51.368;12.364;2023-05-21T09:07:47;21944.34;;;-141.84;53.75
15260;BME280;34462;51.368;12.364;2023-05-21T09:10:22;21991.09;;;-141.84;53.46
15260;BME280;34462;51.368;12.364;2023-05-21T09:12:53;21962.63;;;-141.84;52.99
15260;BME280;34462;51.368;12.364;2023-05-21T09:15:22;21985.00;;;-141.84;53.16
15260;BME280;34462;51.368;12.364;2023-05-21T09:17:51;21964.66;;;-141.84;53.70
15260;BME280;34462;51.368;12.364;2023-05-21T09:20:24;22011.44;;;-141.84;53.37
15260;BME280;34462;51.368;12.364;2023-05-21T09:22:53;22029.75;;;-141.84;52.84
15260;BME280;34462;51.368;12.364;2023-05-21T09:25:23;22007.38;;;-141.84;53.42
15260;BME280;34462;51.368;12.364;2023-05-21T09:27:55;22037.88;;;-141.84;52.79
15260;BME280;34462;51.368;12.364;2023-05-21T09:30:24;22033.81;;;-141.84;52.74
15260;BME280;34462;51.368;12.364;2023-05-21T09:32:58;22072.44;;;-141.84;53.03
15260;BME280;34462;51.368;12.364;2023-05-21T09:35:27;22062.28;;;-141.84;52.99
15260;BME280;34462;51.368;12.364;2023-05-21T09:37:56;22088.72;;;-141.84;53.15
15260;BME280;34462;51.368;12.364;2023-05-21T09:40:24;22107.00;;;-141.84;51.95
15260;BME280;34462;51.368;12.364;2023-05-21T09:42:53;22145.66;;;-141.84;51.45
15260;BME280;34462;51.368;12.364;2023-05-21T09:45:24;22210.72;;;-141.84;51.42
15260;BME280;34462;51.368;12.364;2023-05-21T09:47:54;22224.97;;;-141.84;51.23
15260;BME280;34462;51.368;12.364;2023-05-21T09:50:25;22229.03;;;-141.84;51.31
15260;BME280;34462;51.368;12.364;2023-05-21T09:52:54;22182.25;;;-141.84;51.34
15260;BME280;34462;51.368;12.364;2023-05-21T09:55:25;22214.78;;;-141.84;51.47
15260;BME280;34462;51.368;12.364;2023-05-21T09:57:53;22206.66;;;-141.84;51.49
15260;BME280;34462;51.368;12.364;2023-05-21T10:00:23;22237.16;;;-141.84;51.30
15260;BME280;34462;51.368;12.364;2023-05-21T10:02:55;22265.63;;;-141.84;50.47
15260;BME280;34462;51.368;12.364;2023-05-21T10:05:26;22259.53;;;-141.84;50.77
15260;BME280;34462;51.368;12.364;2023-05-21T10:07:59;22275.81;;;-141.84;50.40
15260;BME280;34462;51.368;12.364;2023-05-21T10:10:31;22355.13;;;-141.84;49.15
15260;BME280;34462;51.368;12.364;2023-05-21T10:13:04;22405.97;;;-141.84;48.75
15260;BME280;34462;51.368;12.364;2023-05-21T10:15:37;22405.97;;;-141.84;48.74
15260;BME280;34462;51.368;12.364;2023-05-21T10:18:07;22397.81;;;-141.84;49.12
15260;BME280;34462;51.368;12.364;2023-05-21T10:20:40;22430.38;;;-141.84;49.40
15260;BME280;34462;51.368;12.364;2023-05-21T10:23:09;22450.69;;;-141.84;49.17
15260;BME280;34462;51.368;12.364;2023-05-21T10:25:40;22475.09;;;-141.84;48.38
15260;BME280;34462;51.368;12.364;2023-05-21T10:28:08;22499.50;;;-141.84;47.74
15260;BME280;34462;51.368;12.364;2023-05-21T10:30:37;22460.88;;;-141.84;47.31
15260;BME280;34462;51.368;12.364;2023-05-21T10:33:06;22550.34;;;-141.84;47.19
15260;BME280;34462;51.368;12.364;2023-05-21T10:35:39;22627.63;;;-141.84;46.69
15260;BME280;34462;51.368;12.364;2023-05-21T10:38:08;22643.91;;;-141.84;46.13
15260;BME280;34462;51.368;12.364;2023-05-21T10:40:36;22652.03;;;-141.84;46.05
15260;BME280;34462;51.368;12.364;2023-05-21T10:43:33;22684.59;;;-141.84;46.12
15260;BME280;34462;51.368;12.364;2023-05-21T10:50:02;22666.28;;;-141.84;45.74
15260;BME280;34462;51.368;12.364;2023-05-21T10:53:00;22660.19;;;-141.84;45.59
15260;BME280;34462;51.368;12.364;2023-05-21T10:55:48;22674.41;;;-141.84;46.22
15260;BME280;34462;51.368;12.364;2023-05-21T10:59:26;22806.63;;;-141.84;45.40
15260;BME280;34462;51.368;12.364;2023-05-21T11:01:59;22810.69;;;-141.84;44.54
15260;BME280;34462;51.368;12.364;2023-05-21T11:04:28;22812.72;;;-141.84;44.70
15260;BME280;34462;51.368;12.364;2023-05-21T11:06:58;22796.44;;;-141.84;44.25
15260;BME280;34462;51.368;12.364;2023-05-21T11:09:27;22782.22;;;-141.84;43.92
15260;BME280;34462;51.368;12.364;2023-05-21T11:11:58;22794.41;;;-141.84;44.04
15260;BME280;34462;51.368;12.364;2023-05-21T11:14:29;22798.47;;;-141.84;44.07
15260;BME280;34462;51.368;12.364;2023-05-21T11:17:02;22790.34;;;-141.84;44.09
15260;BME280;34462;51.368;12.364;2023-05-21T11:19:35;22863.56;;;-141.84;42.48
15260;BME280;34462;51.368;12.364;2023-05-21T11:22:09;22938.81;;;-141.84;40.72
15260;BME280;34462;51.368;12.364;2023-05-21T11:24:40;23010.00;;;-141.84;41.82
15260;BME280;34462;51.368;12.364;2023-05-21T11:27:08;23032.38;;;-141.84;41.37
15260;BME280;34462;51.368;12.364;2023-05-21T11:29:43;23064.94;;;-141.84;41.43
15260;BME280;34462;51.368;12.364;2023-05-21T11:32:13;23144.25;;;-141.84;40.48
15260;BME280;34462;51.368;12.364;2023-05-21T11:34:45;23256.13;;;-141.84;40.23
15260;BME280;34462;51.368;12.364;2023-05-21T11:37:28;23262.25;;;-141.84;40.02
15260;BME280;34462;51.368;12.364;2023-05-21T11:40:22;23274.44;;;-141.84;39.40
15260;BME280;34462;51.368;12.364;2023-05-21T11:42:53;23351.75;;;-141.84;38.98
15260;BME280;34462;51.368;12.364;2023-05-21T11:45:26;23339.53;;;-141.84;38.88
15260;BME280;34462;51.368;12.364;2023-05-21T11:47:55;23309.03;;;-141.84;39.47
15260;BME280;34462;51.368;12.364;2023-05-21T11:50:24;23378.19;;;-141.84;39.30
15260;BME280;34462;51.368;12.364;2023-05-21T11:52:53;23400.56;;;-141.84;39.25
15260;BME280;34462;51.368;12.364;2023-05-21T11:55:23;23404.63;;;-141.84;39.18
15260;BME280;34462;51.368;12.364;2023-05-21T11:57:53;23309.03;;;-141.84;39.70
15260;BME280;34462;51.368;12.364;2023-05-21T12:00:22;23266.31;;;-141.84;40.19
15260;BME280;34462;51.368;12.364;2023-05-21T12:02:51;23292.75;;;-141.84;40.57
15260;BME280;34462;51.368;12.364;2023-05-21T12:05:22;23264.28;;;-141.84;40.60
15260;BME280;34462;51.368;12.364;2023-05-21T12:07:50;23304.97;;;-141.84;40.73
15260;BME280;34462;51.368;12.364;2023-05-21T12:10:21;23331.41;;;-141.84;40.82
15260;BME280;34462;51.368;12.364;2023-05-21T12:12:51;23268.34;;;-141.84;40.76
15260;BME280;34462;51.368;12.364;2023-05-21T12:15:25;23325.31;;;-141.84;40.48
15260;BME280;34462;51.368;12.364;2023-05-21T12:17:54;23319.19;;;-141.84;40.38
15260;BME280;34462;51.368;12.364;2023-05-21T12:20:25;23335.47;;;-141.84;39.89
15260;BME280;34462;51.368;12.364;2023-05-21T12:22:56;23374.13;;;-141.84;39.83
15260;BME280;34462;51.368;12.364;2023-05-21T12:25:26;23388.38;;;-141.84;39.83
15260;BME280;34462;51.368;12.364;2023-05-21T12:27:57;23388.38;;;-141.84;39.62
15260;BME280;34462;51.368;12.364;2023-05-21T12:30:27;23380.22;;;-141.84;39.83
15260;BME280;34462;51.368;12.364;2023-05-21T12:32:57;23382.25;;;-141.84;39.69
15260;BME280;34462;51.368;12.364;2023-05-21T12:35:29;23429.03;;;-141.84;39.36
15260;BME280;34462;51.368;12.364;2023-05-21T12:38:00;23563.31;;;-141.84;38.74
15260;BME280;34462;51.368;12.364;2023-05-21T12:40:35;23494.16;;;-141.84;39.20
15260;BME280;34462;51.368;12.364;2023-05-21T12:43:07;23477.88;;;-141.84;39.16
15260;BME280;34462;51.368;12.364;2023-05-21T12:45:37;23404.63;;;-141.84;39.00
15260;BME280;34462;51.368;12.364;2023-05-21T12:48:07;23412.78;;;-141.84;39.11